Dwight, IL (60420)

7:16 AM CDT on September 28, 2016 (GMT -0500)
Central Illinois | | Change Station

Elev 646 ft 41.09 °N, 88.43 °W | Updated 4 minutes ago

Overcast
Overcast
51.6 °F
Feels Like 51.6 °F
N
6.0
Wind Variable Wind from NNW
Gusts 10.0 mph

Today
High -- | Low -- °F
--% Chance of Precip.
Yesterday
High -- | Low -- °F
Precip. -- in
Pressure 29.83 in
Visibility 10.0 miles
Clouds Scattered Clouds 6000 ft
Overcast 7000 ft
Dew Point 47 °F
Humidity 83%
Rainfall 0.00 in
Snow Depth Not available.
6:47 AM 6:39 PM
Waning Crescent, 6% visible
METAR KPNT 281155Z AUTO 34010G14KT 10SM SCT060 OVC070 12/10 A2983 RMK AO2 T01150095 10144 20115
Pressure 29.83 in
Visibility 10.0 miles
Clouds Scattered Clouds 6000 ft
Overcast 7000 ft
Dew Point 47 °F
Humidity 83%
Rainfall 0.00 in
Snow Depth Not available.
6:47 AM 6:39 PM
Waning Crescent, 6% visible
METAR KPNT 281155Z AUTO 34010G14KT 10SM SCT060 OVC070 12/10 A2983 RMK AO2 T01150095 10144 20115

10-Day Weather Forecast

Almanac

Astronomy

Sep. 28, 2016 Rise Set
Actual Time
Civil Twilight
Nautical Twilight
Astronomical Twilight
Moon
Length of Visible Light
Length of Day
Tomorrow will be .
, % of the Moon is Illuminated

Today's Extremes

State Highs State Lows

Community

WunderPhotos

Upload Photos

1,942,236 photos uploaded!

WunderBlog® & News

Nearby

Air Quality

  Air Quality AQ Index Pollutant
Not available.

Snow Depth

Station Depth Elevation

Earthquake Activity

City Distance Mag. Time & Date
Minimum magnitude displayed is 2.5.

Coastal Water Temperatures

Place Temperature

Stations

Nearby Weather Stations

Station Location Temp. Windchill Dew Point Humidity Wind Precip. Elev Updated Type
                   

Watches & Warnings

There are currently no watches in effect.